Time;durP1;ratioP1;P1;durP2;ratioP2;P2;SDS_P1;SDS_P2;PMS_P1;PMS_P2;Temp;Humidity;BMP_temperature;BMP_pressure;BME280_temperature;BME280_humidity;BME280_pressure;Samples;Min_cycle;Max_cycle;Signal;HPM_P1;HPM_P2
2021/03/01 19:09:45;;;;;;;29.08;16.15;;;5.70;1.00;;;;;;6187407;22;21560;-80
2021/03/01 20:41:28;;;;;;;28.65;17.88;;;4.30;1.00;;;;;;6202078;22;20942;-79
2021/03/01 20:46:59;;;;;;;25.23;16.83;;;4.20;1.00;;;;;;6206934;23;20200;-80
2021/03/01 20:49:25;;;;;;;23.38;17.33;;;4.10;1.00;;;;;;6221170;23;20197;-78
2021/03/01 20:51:51;;;;;;;23.20;17.55;;;4.00;1.00;;;;;;6192700;23;20235;-78
2021/03/01 20:54:18;;;;;;;22.08;17.33;;;4.00;1.00;;;;;;6188861;23;20656;-76
2021/03/01 20:57:23;;;;;;;40.10;20.35;;;3.90;1.00;;;;;;6230609;22;20208;-81
2021/03/01 21:00:14;;;;;;;27.30;17.92;;;3.90;1.00;;;;;;6249133;22;20509;-82
2021/03/01 21:02:50;;;;;;;28.70;18.40;;;3.90;1.00;;;;;;6223564;22;20185;-78
2021/03/01 21:08:21;;;;;;;26.75;17.95;;;3.80;1.00;;;;;;6197407;23;20412;-81
2021/03/01 21:11:03;;;;;;;27.85;18.58;;;3.80;1.00;;;;;;6196487;23;20201;-78
2021/03/01 21:13:41;;;;;;;31.25;19.60;;;3.70;1.00;;;;;;6196903;23;20189;-80
2021/03/01 21:16:28;;;;;;;27.95;19.92;;;3.70;1.00;;;;;;6222551;23;20194;-82
2021/03/01 21:19:21;;;;;;;24.33;17.42;;;3.70;1.00;;;;;;6198234;23;20229;-79
2021/03/01 21:22:33;;;;;;;;;;;;;;;;;;;;;
2021/03/01 21:25:25;;;;;;;26.35;19.27;;;3.70;1.00;;;;;;6174092;22;20272;-77
2021/03/01 21:27:57;;;;;;;24.58;19.92;;;3.70;1.00;;;;;;6207457;23;20181;-81
2021/03/01 21:30:39;;;;;;;25.58;19.50;;;3.70;1.00;;;;;;6227228;23;20210;-78
2021/03/01 21:33:12;;;;;;;22.67;18.33;;;3.70;1.00;;;;;;6195157;23;20229;-81
2021/03/01 21:35:50;;;;;;;26.80;19.17;;;3.70;1.00;;;;;;6217328;23;20208;-80
2021/03/01 21:38:41;;;;;;;28.10;21.30;;;3.70;1.00;;;;;;6218321;23;20193;-80
2021/03/01 21:41:18;;;;;;;23.25;18.80;;;3.60;1.00;;;;;;6193609;23;20193;-78
2021/03/01 21:43:45;;;;;;;31.20;21.15;;;3.60;1.00;;;;;;6220459;23;20194;-81
2021/03/01 21:46:18;;;;;;;25.42;19.10;;;3.50;1.00;;;;;;6186763;23;20306;-76
2021/03/01 21:48:45;;;;;;;29.23;20.38;;;3.50;1.00;;;;;;6188607;23;20194;-76
2021/03/01 21:51:12;;;;;;;33.75;21.13;;;3.50;1.00;;;;;;6213864;23;20637;-76
2021/03/01 21:53:43;;;;;;;27.70;20.58;;;3.40;1.00;;;;;;6217824;23;20244;-80
2021/03/01 21:56:09;;;;;;;28.27;19.50;;;3.40;1.00;;;;;;6191414;23;20202;-79
2021/03/01 21:58:37;;;;;;;24.15;19.35;;;3.30;1.00;;;;;;6222289;23;20736;-79
2021/03/01 22:01:04;;;;;;;26.90;20.17;;;3.30;1.00;;;;;;6196831;23;20201;-82
2021/03/01 22:03:40;;;;;;;33.63;22.05;;;3.30;1.00;;;;;;6225788;23;20302;-80
2021/03/01 22:06:06;;;;;;;26.98;20.13;;;3.30;1.00;;;;;;6199360;23;20217;-79
2021/03/01 22:08:34;;;;;;;27.05;20.13;;;3.20;1.00;;;;;;6229831;23;20279;-76
2021/03/01 22:11:01;;;;;;;28.23;19.52;;;3.20;1.00;;;;;;6237096;23;20205;-79
2021/03/01 22:13:27;;;;;;;31.08;21.13;;;3.30;1.00;;;;;;6235594;23;21031;-78
2021/03/01 22:15:54;;;;;;;29.98;20.67;;;3.30;1.00;;;;;;6238205;23;20248;-80
2021/03/01 22:18:20;;;;;;;25.63;19.08;;;3.30;1.00;;;;;;6241472;23;20204;-79
2021/03/01 22:20:50;;;;;;;29.42;20.20;;;3.30;1.00;;;;;;6213057;23;20193;-79
2021/03/01 22:23:18;;;;;;;24.92;16.85;;;3.30;1.00;;;;;;6242274;22;20196;-78
2021/03/01 22:25:45;;;;;;;34.08;20.52;;;3.30;1.00;;;;;;6239783;22;20194;-78
2021/03/01 22:28:14;;;;;;;25.38;18.65;;;3.40;1.00;;;;;;6226270;23;20189;-79
2021/03/01 22:30:42;;;;;;;23.73;17.67;;;3.40;1.00;;;;;;6225446;23;20206;-79
2021/03/01 22:33:16;;;;;;;26.50;18.40;;;3.40;1.00;;;;;;6229263;23;20198;-80
2021/03/01 22:35:45;;;;;;;23.27;17.30;;;3.40;1.00;;;;;;6233614;23;20202;-79
2021/03/01 22:38:13;;;;;;;22.40;16.85;;;3.40;1.00;;;;;;6227878;23;20185;-80
2021/03/01 22:40:41;;;;;;;32.13;17.90;;;3.50;1.00;;;;;;6198240;23;20194;-78
2021/03/01 22:43:08;;;;;;;21.83;14.98;;;3.50;1.00;;;;;;6225195;23;20189;-78
2021/03/01 22:45:35;;;;;;;22.42;15.50;;;3.50;1.00;;;;;;6224048;23;20981;-78
2021/03/01 22:48:04;;;;;;;21.90;16.27;;;3.60;1.00;;;;;;6225161;23;20250;-81
2021/03/01 22:50:31;;;;;;;21.27;14.98;;;3.60;1.00;;;;;;6228384;23;20260;-79
2021/03/01 22:53:01;;;;;;;24.95;16.90;;;3.70;1.00;;;;;;6225316;23;20253;-80
2021/03/01 22:55:29;;;;;;;24.55;16.80;;;3.70;1.00;;;;;;6221092;23;20192;-79
2021/03/01 22:57:57;;;;;;;27.33;16.75;;;3.70;1.00;;;;;;6222858;23;20191;-77
2021/03/01 23:00:24;;;;;;;23.80;15.30;;;3.70;1.00;;;;;;6226355;23;20292;-77
2021/03/01 23:02:50;;;;;;;21.85;15.48;;;3.80;1.00;;;;;;6226571;23;20206;-78
2021/03/01 23:05:16;;;;;;;29.52;16.05;;;3.80;1.00;;;;;;6195671;22;20200;-77
2021/03/01 23:07:43;;;;;;;24.90;16.15;;;3.80;1.00;;;;;;6220718;23;20247;-76
2021/03/01 23:10:11;;;;;;;25.42;16.83;;;3.80;1.00;;;;;;6194726;23;20209;-79
2021/03/01 23:12:39;;;;;;;23.98;16.77;;;3.80;1.00;;;;;;6221712;23;20526;-79
2021/03/01 23:15:06;;;;;;;22.70;15.70;;;3.80;1.00;;;;;;6222453;22;20197;-78
2021/03/01 23:17:33;;;;;;;22.33;15.98;;;3.70;1.00;;;;;;6222688;23;20565;-79
2021/03/01 23:19:59;;;;;;;25.05;15.85;;;3.70;1.00;;;;;;6198388;23;20228;-80
2021/03/01 23:22:26;;;;;;;23.60;15.40;;;3.60;1.00;;;;;;6223420;23;20206;-78
2021/03/01 23:24:53;;;;;;;25.27;16.77;;;3.50;1.00;;;;;;6217979;23;20252;-79
2021/03/01 23:27:19;;;;;;;28.17;16.15;;;3.40;1.00;;;;;;6192206;23;20201;-79
2021/03/01 23:29:46;;;;;;;20.80;15.02;;;3.30;1.00;;;;;;6218842;23;20200;-80
2021/03/01 23:32:12;;;;;;;25.10;15.90;;;3.20;1.00;;;;;;6220981;23;20198;-78
2021/03/01 23:34:40;;;;;;;24.42;15.88;;;3.10;1.00;;;;;;6222329;23;20198;-79
2021/03/01 23:37:08;;;;;;;22.95;15.82;;;3.00;1.00;;;;;;6220326;22;20197;-79
2021/03/01 23:39:35;;;;;;;22.38;15.85;;;3.00;1.00;;;;;;6220193;23;20197;-78
2021/03/01 23:42:03;;;;;;;23.05;17.27;;;2.90;1.00;;;;;;6221782;23;21044;-79
2021/03/01 23:44:31;;;;;;;26.63;16.42;;;2.80;1.00;;;;;;6222402;23;20213;-79
2021/03/01 23:47:00;;;;;;;23.13;15.70;;;2.80;1.00;;;;;;6199626;23;20197;-78
2021/03/01 23:49:27;;;;;;;28.05;18.30;;;2.80;1.00;;;;;;6224744;23;20190;-80
2021/03/01 23:51:56;;;;;;;28.52;18.95;;;2.80;1.00;;;;;;6224469;23;20213;-81
2021/03/01 23:54:23;;;;;;;23.77;15.35;;;2.70;1.00;;;;;;6224042;23;20189;-80
2021/03/01 23:56:52;;;;;;;23.92;16.05;;;2.70;1.00;;;;;;6200829;23;20216;-79
2021/03/01 23:59:19;;;;;;;27.25;17.00;;;2.70;1.00;;;;;;6223618;23;20224;-78
